sensor_id;sensor_type;location;lat;lon;timestamp;pressure;altitude;pressure_sealevel;temperature;humidity
35226;BME280;21813;49.686;21.766;2023-02-01T00:00:51;97735.84;;;-0.04;100.00
35226;BME280;21813;49.686;21.766;2023-02-01T00:03:28;97731.56;;;-0.03;100.00
35226;BME280;21813;49.686;21.766;2023-02-01T00:06:01;97728.09;;;-0.02;100.00
35226;BME280;21813;49.686;21.766;2023-02-01T00:08:38;97722.97;;;-0.02;100.00
35226;BME280;21813;49.686;21.766;2023-02-01T00:11:22;97722.97;;;-0.02;100.00
35226;BME280;21813;49.686;21.766;2023-02-01T00:13:48;97724.53;;;0.00;100.00
35226;BME280;21813;49.686;21.766;2023-02-01T00:16:26;97727.03;;;0.02;100.00
35226;BME280;21813;49.686;21.766;2023-02-01T00:21:50;97722.75;;;0.03;100.00
35226;BME280;21813;49.686;21.766;2023-02-01T00:24:22;97720.25;;;0.01;100.00
35226;BME280;21813;49.686;21.766;2023-02-01T00:26:56;97713.34;;;0.03;100.00
35226;BME280;21813;49.686;21.766;2023-02-01T00:29:34;97713.34;;;0.03;100.00
35226;BME280;21813;49.686;21.766;2023-02-01T00:35:11;97708.06;;;0.06;100.00
35226;BME280;21813;49.686;21.766;2023-02-01T00:37:36;97691.19;;;0.02;100.00
35226;BME280;21813;49.686;21.766;2023-02-01T00:40:07;97692.69;;;0.06;100.00
35226;BME280;21813;49.686;21.766;2023-02-01T00:42:33;97701.13;;;0.08;100.00
35226;BME280;21813;49.686;21.766;2023-02-01T00:45:03;97702.19;;;0.04;100.00
35226;BME280;21813;49.686;21.766;2023-02-01T00:47:59;97713.84;;;0.10;100.00
35226;BME280;21813;49.686;21.766;2023-02-01T00:50:45;97704.44;;;0.10;100.00
35226;BME280;21813;49.686;21.766;2023-02-01T00:53:21;97702.66;;;0.12;100.00
35226;BME280;21813;49.686;21.766;2023-02-01T00:55:49;97691.72;;;0.09;100.00
35226;BME280;21813;49.686;21.766;2023-02-01T02:44:24;97624.22;;;0.60;100.00
35226;BME280;21813;49.686;21.766;2023-02-01T02:56:56;97631.25;;;0.72;100.00
35226;BME280;21813;49.686;21.766;2023-02-01T04:06:39;97703.50;;;1.60;100.00
35226;BME280;21813;49.686;21.766;2023-02-01T04:09:49;97702.00;;;1.56;100.00
35226;BME280;21813;49.686;21.766;2023-02-01T04:13:28;97708.63;;;1.60;100.00
35226;BME280;21813;49.686;21.766;2023-02-01T04:16:08;97708.63;;;1.60;100.00
35226;BME280;21813;49.686;21.766;2023-02-01T04:19:33;97722.56;;;1.56;100.00
35226;BME280;21813;49.686;21.766;2023-02-01T04:22:20;97725.69;;;1.61;100.00
35226;BME280;21813;49.686;21.766;2023-02-01T04:29:04;97741.44;;;1.55;100.00
35226;BME280;21813;49.686;21.766;2023-02-01T04:31:30;97737.19;;;1.54;100.00
35226;BME280;21813;49.686;21.766;2023-02-01T04:33:57;97747.66;;;1.51;100.00
35226;BME280;21813;49.686;21.766;2023-02-01T04:36:25;97751.69;;;1.55;100.00
35226;BME280;21813;49.686;21.766;2023-02-01T04:38:54;97748.38;;;1.53;100.00
35226;BME280;21813;49.686;21.766;2023-02-01T04:59:53;97760.22;;;1.40;100.00
35226;BME280;21813;49.686;21.766;2023-02-01T05:02:21;97769.41;;;1.44;100.00
35226;BME280;21813;49.686;21.766;2023-02-01T05:04:47;97765.09;;;1.44;100.00
35226;BME280;21813;49.686;21.766;2023-02-01T06:02:47;97795.72;;;1.31;100.00
35226;BME280;21813;49.686;21.766;2023-02-01T06:05:35;97801.63;;;1.33;100.00
35226;BME280;21813;49.686;21.766;2023-02-01T06:08:16;97795.50;;;1.36;100.00
35226;BME280;21813;49.686;21.766;2023-02-01T06:32:52;97812.63;;;1.36;100.00
35226;BME280;21813;49.686;21.766;2023-02-01T06:38:14;97806.00;;;1.31;100.00
35226;BME280;21813;49.686;21.766;2023-02-01T06:40:43;97808.41;;;1.34;100.00
35226;BME280;21813;49.686;21.766;2023-02-01T06:43:12;97817.63;;;1.39;100.00
35226;BME280;21813;49.686;21.766;2023-02-01T06:45:40;97809.00;;;1.40;100.00
35226;BME280;21813;49.686;21.766;2023-02-01T06:48:07;97811.66;;;1.38;100.00
35226;BME280;21813;49.686;21.766;2023-02-01T06:50:37;97814.13;;;1.40;100.00
35226;BME280;21813;49.686;21.766;2023-02-01T06:59:27;97819.13;;;1.43;100.00
35226;BME280;21813;49.686;21.766;2023-02-01T07:01:57;97812.97;;;1.45;100.00
35226;BME280;21813;49.686;21.766;2023-02-01T07:04:23;97813.81;;;1.46;100.00
35226;BME280;21813;49.686;21.766;2023-02-01T07:07:03;97813.88;;;1.44;100.00
35226;BME280;21813;49.686;21.766;2023-02-01T07:09:30;97808.75;;;1.44;100.00
35226;BME280;21813;49.686;21.766;2023-02-01T07:16:14;97840.69;;;1.56;100.00
35226;BME280;21813;49.686;21.766;2023-02-01T07:19:15;97837.34;;;1.54;100.00
35226;BME280;21813;49.686;21.766;2023-02-01T07:21:47;97841.81;;;1.50;100.00
35226;BME280;21813;49.686;21.766;2023-02-01T07:24:22;97853.75;;;1.51;100.00
35226;BME280;21813;49.686;21.766;2023-02-01T07:26:47;97847.97;;;1.48;100.00
35226;BME280;21813;49.686;21.766;2023-02-01T07:29:15;97855.50;;;1.51;100.00
35226;BME280;21813;49.686;21.766;2023-02-01T07:35:22;97845.81;;;1.56;100.00
35226;BME280;21813;49.686;21.766;2023-02-01T07:38:03;97842.47;;;1.54;100.00
35226;BME280;21813;49.686;21.766;2023-02-01T07:40:29;97837.22;;;1.57;100.00
35226;BME280;21813;49.686;21.766;2023-02-01T07:42:58;97838.00;;;1.57;100.00
35226;BME280;21813;49.686;21.766;2023-02-01T07:45:26;97843.66;;;1.64;100.00
35226;BME280;21813;49.686;21.766;2023-02-01T07:47:52;97853.78;;;1.67;100.00
35226;BME280;21813;49.686;21.766;2023-02-01T07:50:23;97839.19;;;1.67;100.00
35226;BME280;21813;49.686;21.766;2023-02-01T07:52:49;97841.88;;;1.66;100.00
35226;BME280;21813;49.686;21.766;2023-02-01T07:55:21;97850.81;;;1.74;100.00
35226;BME280;21813;49.686;21.766;2023-02-01T07:57:47;97834.56;;;1.74;100.00
35226;BME280;21813;49.686;21.766;2023-02-01T08:00:14;97848.00;;;1.79;100.00
35226;BME280;21813;49.686;21.766;2023-02-01T08:02:58;97846.50;;;1.75;100.00
35226;BME280;21813;49.686;21.766;2023-02-01T08:05:26;97844.53;;;1.80;100.00
35226;BME280;21813;49.686;21.766;2023-02-01T08:07:52;97830.75;;;1.81;100.00
35226;BME280;21813;49.686;21.766;2023-02-01T08:10:19;97841.63;;;1.86;100.00
35226;BME280;21813;49.686;21.766;2023-02-01T08:12:45;97836.41;;;1.88;100.00
35226;BME280;21813;49.686;21.766;2023-02-01T08:15:14;97839.72;;;1.90;100.00
35226;BME280;21813;49.686;21.766;2023-02-01T08:18:10;97827.94;;;1.86;100.00
35226;BME280;21813;49.686;21.766;2023-02-01T10:04:33;97788.25;;;2.96;100.00
35226;BME280;21813;49.686;21.766;2023-02-01T10:18:02;97772.81;;;3.10;100.00
35226;BME280;21813;49.686;21.766;2023-02-01T10:24:46;97771.34;;;3.21;100.00
35226;BME280;21813;49.686;21.766;2023-02-01T10:27:40;97775.09;;;3.15;100.00
35226;BME280;21813;49.686;21.766;2023-02-01T10:30:24;97780.38;;;3.14;100.00
35226;BME280;21813;49.686;21.766;2023-02-01T10:33:45;97771.00;;;3.13;100.00
35226;BME280;21813;49.686;21.766;2023-02-01T10:35:53;97753.16;;;3.09;100.00
35226;BME280;21813;49.686;21.766;2023-02-01T10:38:35;97749.63;;;3.10;100.00
35226;BME280;21813;49.686;21.766;2023-02-01T10:41:47;97749.38;;;3.15;100.00
35226;BME280;21813;49.686;21.766;2023-02-01T10:46:59;97720.88;;;3.18;100.00
35226;BME280;21813;49.686;21.766;2023-02-01T10:49:33;97724.63;;;3.27;100.00
35226;BME280;21813;49.686;21.766;2023-02-01T10:52:17;97728.19;;;3.38;100.00
35226;BME280;21813;49.686;21.766;2023-02-01T10:54:46;97719.06;;;3.47;100.00
35226;BME280;21813;49.686;21.766;2023-02-01T10:57:25;97708.41;;;3.53;100.00
35226;BME280;21813;49.686;21.766;2023-02-01T10:59:52;97707.13;;;3.60;100.00
35226;BME280;21813;49.686;21.766;2023-02-01T11:02:32;97701.56;;;3.66;100.00
35226;BME280;21813;49.686;21.766;2023-02-01T11:05:09;97698.06;;;3.67;99.12
35226;BME280;21813;49.686;21.766;2023-02-01T11:07:46;97688.50;;;3.69;97.54
35226;BME280;21813;49.686;21.766;2023-02-01T11:10:40;97697.47;;;3.76;96.84
35226;BME280;21813;49.686;21.766;2023-02-01T11:13:37;97688.09;;;3.75;96.21
35226;BME280;21813;49.686;21.766;2023-02-01T11:16:13;97685.13;;;3.81;95.76
35226;BME280;21813;49.686;21.766;2023-02-01T11:19:05;97679.97;;;3.81;95.35
35226;BME280;21813;49.686;21.766;2023-02-01T11:21:34;97679.59;;;3.87;95.12
35226;BME280;21813;49.686;21.766;2023-02-01T11:24:02;97685.81;;;3.97;95.65
35226;BME280;21813;49.686;21.766;2023-02-01T11:26:43;97673.44;;;4.03;95.10
35226;BME280;21813;49.686;21.766;2023-02-01T11:29:13;97669.03;;;4.17;94.11
35226;BME280;21813;49.686;21.766;2023-02-01T11:31:44;97662.75;;;4.21;94.00
35226;BME280;21813;49.686;21.766;2023-02-01T11:34:21;97673.28;;;4.31;93.23
35226;BME280;21813;49.686;21.766;2023-02-01T11:36:48;97673.13;;;4.34;92.08
35226;BME280;21813;49.686;21.766;2023-02-01T11:39:23;97678.06;;;4.37;90.98
35226;BME280;21813;49.686;21.766;2023-02-01T11:42:21;97667.97;;;4.34;90.46
35226;BME280;21813;49.686;21.766;2023-02-01T11:44:49;97653.78;;;4.27;90.51
35226;BME280;21813;49.686;21.766;2023-02-01T11:47:27;97658.03;;;4.28;90.43
35226;BME280;21813;49.686;21.766;2023-02-01T11:49:59;97658.25;;;4.25;90.27
35226;BME280;21813;49.686;21.766;2023-02-01T11:53:03;97654.31;;;4.19;90.67
35226;BME280;21813;49.686;21.766;2023-02-01T12:01:38;97646.06;;;4.27;91.26
35226;BME280;21813;49.686;21.766;2023-02-01T12:07:19;97650.09;;;4.31;91.57
35226;BME280;21813;49.686;21.766;2023-02-01T12:13:14;97638.75;;;4.33;91.24
35226;BME280;21813;49.686;21.766;2023-02-01T13:07:43;97624.41;;;4.29;88.88
35226;BME280;21813;49.686;21.766;2023-02-01T13:42:56;97623.13;;;3.97;93.30
35226;BME280;21813;49.686;21.766;2023-02-01T13:51:55;97633.38;;;3.84;93.84
35226;BME280;21813;49.686;21.766;2023-02-01T13:57:34;97627.38;;;3.71;94.84
35226;BME280;21813;49.686;21.766;2023-02-01T14:06:03;97628.28;;;3.70;95.85
35226;BME280;21813;49.686;21.766;2023-02-01T14:09:41;97629.22;;;3.69;95.22
35226;BME280;21813;49.686;21.766;2023-02-01T14:12:49;97630.25;;;3.67;96.17
35226;BME280;21813;49.686;21.766;2023-02-01T14:15:19;97624.38;;;3.65;96.20
35226;BME280;21813;49.686;21.766;2023-02-01T14:17:49;97635.81;;;3.61;96.64
35226;BME280;21813;49.686;21.766;2023-02-01T14:20:41;97633.31;;;3.59;96.37
35226;BME280;21813;49.686;21.766;2023-02-01T14:23:21;97636.81;;;3.58;96.49
35226;BME280;21813;49.686;21.766;2023-02-01T14:26:02;97639.47;;;3.56;96.14
35226;BME280;21813;49.686;21.766;2023-02-01T14:28:30;97638.69;;;3.56;96.83
35226;BME280;21813;49.686;21.766;2023-02-01T14:37:42;97638.22;;;3.49;97.29
35226;BME280;21813;49.686;21.766;2023-02-01T14:40:26;97637.59;;;3.46;96.92
35226;BME280;21813;49.686;21.766;2023-02-01T14:42:53;97631.69;;;3.44;97.23
35226;BME280;21813;49.686;21.766;2023-02-01T14:50:50;97630.44;;;3.37;98.81
35226;BME280;21813;49.686;21.766;2023-02-01T14:53:32;97631.38;;;3.36;98.50
35226;BME280;21813;49.686;21.766;2023-02-01T14:56:26;97629.91;;;3.32;99.26
35226;BME280;21813;49.686;21.766;2023-02-01T14:59:28;97628.44;;;3.28;99.41
35226;BME280;21813;49.686;21.766;2023-02-01T15:02:25;97626.03;;;3.25;99.90
35226;BME280;21813;49.686;21.766;2023-02-01T15:08:31;97624.59;;;3.21;100.00
35226;BME280;21813;49.686;21.766;2023-02-01T15:11:05;97625.69;;;3.17;100.00
35226;BME280;21813;49.686;21.766;2023-02-01T15:13:32;97638.66;;;3.15;100.00
35226;BME280;21813;49.686;21.766;2023-02-01T15:16:17;97624.59;;;3.06;100.00
35226;BME280;21813;49.686;21.766;2023-02-01T15:18:43;97615.34;;;3.04;100.00
35226;BME280;21813;49.686;21.766;2023-02-01T15:23:43;97633.44;;;3.02;100.00
35226;BME280;21813;49.686;21.766;2023-02-01T15:26:24;97640.44;;;3.00;100.00
35226;BME280;21813;49.686;21.766;2023-02-01T15:28:51;97634.63;;;2.97;100.00
35226;BME280;21813;49.686;21.766;2023-02-01T15:31:55;97630.72;;;2.91;100.00
35226;BME280;21813;49.686;21.766;2023-02-01T15:34:21;97642.47;;;2.95;100.00
35226;BME280;21813;49.686;21.766;2023-02-01T15:37:06;97643.59;;;2.91;100.00
35226;BME280;21813;49.686;21.766;2023-02-01T15:39:32;97635.88;;;2.91;100.00
35226;BME280;21813;49.686;21.766;2023-02-01T15:42:22;97644.66;;;2.87;100.00
35226;BME280;21813;49.686;21.766;2023-02-01T15:44:48;97615.72;;;2.84;100.00
35226;BME280;21813;49.686;21.766;2023-02-01T15:47:32;97624.28;;;2.84;100.00
35226;BME280;21813;49.686;21.766;2023-02-01T15:50:15;97625.31;;;2.82;100.00
35226;BME280;21813;49.686;21.766;2023-02-01T15:52:50;97631.44;;;2.79;100.00
35226;BME280;21813;49.686;21.766;2023-02-01T15:55:45;97631.63;;;2.76;100.00
35226;BME280;21813;49.686;21.766;2023-02-01T15:58:19;97617.38;;;2.71;100.00
35226;BME280;21813;49.686;21.766;2023-02-01T16:01:03;97605.63;;;2.66;100.00
35226;BME280;21813;49.686;21.766;2023-02-01T16:03:44;97610.69;;;2.68;100.00
35226;BME280;21813;49.686;21.766;2023-02-01T16:06:46;97620.88;;;2.70;100.00
35226;BME280;21813;49.686;21.766;2023-02-01T16:09:18;97622.63;;;2.69;100.00
35226;BME280;21813;49.686;21.766;2023-02-01T16:11:51;97615.09;;;2.66;100.00
35226;BME280;21813;49.686;21.766;2023-02-01T16:14:22;97611.06;;;2.62;100.00
35226;BME280;21813;49.686;21.766;2023-02-01T16:16:48;97614.53;;;2.61;100.00
35226;BME280;21813;49.686;21.766;2023-02-01T16:19:23;97613.72;;;2.60;100.00
35226;BME280;21813;49.686;21.766;2023-02-01T16:21:54;97615.44;;;2.60;100.00
35226;BME280;21813;49.686;21.766;2023-02-01T16:24:21;97619.78;;;2.59;100.00
35226;BME280;21813;49.686;21.766;2023-02-01T16:26:50;97627.59;;;2.58;100.00
35226;BME280;21813;49.686;21.766;2023-02-01T16:29:22;97608.00;;;2.55;100.00
35226;BME280;21813;49.686;21.766;2023-02-01T16:31:49;97613.34;;;2.52;100.00
35226;BME280;21813;49.686;21.766;2023-02-01T16:34:42;97607.56;;;2.49;100.00
35226;BME280;21813;49.686;21.766;2023-02-01T16:37:21;97611.59;;;2.53;100.00
35226;BME280;21813;49.686;21.766;2023-02-01T16:40:03;97609.13;;;2.51;100.00
35226;BME280;21813;49.686;21.766;2023-02-01T16:42:46;97604.06;;;2.50;100.00
35226;BME280;21813;49.686;21.766;2023-02-01T16:45:18;97610.84;;;2.51;100.00
35226;BME280;21813;49.686;21.766;2023-02-01T16:47:54;97626.28;;;2.51;100.00
35226;BME280;21813;49.686;21.766;2023-02-01T16:50:41;97629.97;;;2.47;100.00
35226;BME280;21813;49.686;21.766;2023-02-01T16:53:31;97652.13;;;2.49;100.00
35226;BME280;21813;49.686;21.766;2023-02-01T16:56:00;97652.00;;;2.51;100.00
35226;BME280;21813;49.686;21.766;2023-02-01T16:58:30;97644.56;;;2.46;100.00
35226;BME280;21813;49.686;21.766;2023-02-01T17:01:17;97632.63;;;2.45;100.00
35226;BME280;21813;49.686;21.766;2023-02-01T17:07:00;97622.16;;;2.34;100.00
35226;BME280;21813;49.686;21.766;2023-02-01T17:09:29;97636.47;;;2.38;100.00
35226;BME280;21813;49.686;21.766;2023-02-01T17:11:55;97642.44;;;2.39;100.00
35226;BME280;21813;49.686;21.766;2023-02-01T17:15:00;97630.69;;;2.35;100.00
35226;BME280;21813;49.686;21.766;2023-02-01T17:20:21;97624.81;;;2.33;100.00
35226;BME280;21813;49.686;21.766;2023-02-01T17:23:15;97629.03;;;2.34;100.00
35226;BME280;21813;49.686;21.766;2023-02-01T17:25:46;97626.53;;;2.32;100.00
35226;BME280;21813;49.686;21.766;2023-02-01T17:28:31;97626.81;;;2.28;100.00
35226;BME280;21813;49.686;21.766;2023-02-01T17:30:57;97631.88;;;2.29;100.00
35226;BME280;21813;49.686;21.766;2023-02-01T17:33:29;97627.00;;;2.25;100.00
35226;BME280;21813;49.686;21.766;2023-02-01T17:35:56;97636.94;;;2.31;100.00
35226;BME280;21813;49.686;21.766;2023-02-01T17:38:23;97636.19;;;2.29;100.00
35226;BME280;21813;49.686;21.766;2023-02-01T17:40:50;97630.31;;;2.27;100.00
35226;BME280;21813;49.686;21.766;2023-02-01T17:43:20;97638.03;;;2.27;100.00
35226;BME280;21813;49.686;21.766;2023-02-01T17:45:55;97652.53;;;2.28;100.00
35226;BME280;21813;49.686;21.766;2023-02-01T17:48:23;97642.50;;;2.23;100.00
35226;BME280;21813;49.686;21.766;2023-02-01T17:50:50;97642.50;;;2.23;100.00
35226;BME280;21813;49.686;21.766;2023-02-01T17:53:22;97644.63;;;2.16;100.00
35226;BME280;21813;49.686;21.766;2023-02-01T17:55:49;97646.19;;;2.19;100.00
35226;BME280;21813;49.686;21.766;2023-02-01T17:58:16;97650.69;;;2.15;100.00
35226;BME280;21813;49.686;21.766;2023-02-01T18:04:55;97644.22;;;2.08;100.00
35226;BME280;21813;49.686;21.766;2023-02-01T18:07:20;97648.44;;;2.09;100.00
35226;BME280;21813;49.686;21.766;2023-02-01T18:09:46;97646.25;;;2.03;100.00
35226;BME280;21813;49.686;21.766;2023-02-01T18:12:18;97655.78;;;2.01;100.00
35226;BME280;21813;49.686;21.766;2023-02-01T18:14:45;97657.50;;;2.01;100.00
35226;BME280;21813;49.686;21.766;2023-02-01T18:17:14;97651.72;;;1.97;100.00
35226;BME280;21813;49.686;21.766;2023-02-01T18:19:40;97656.13;;;1.95;100.00
35226;BME280;21813;49.686;21.766;2023-02-01T18:22:14;97655.38;;;1.93;100.00
35226;BME280;21813;49.686;21.766;2023-02-01T18:24:42;97662.34;;;1.91;100.00
35226;BME280;21813;49.686;21.766;2023-02-01T18:27:09;97653.91;;;1.89;100.00
35226;BME280;21813;49.686;21.766;2023-02-01T18:29:35;97660.88;;;1.87;100.00
35226;BME280;21813;49.686;21.766;2023-02-01T18:32:01;97662.59;;;1.87;100.00
35226;BME280;21813;49.686;21.766;2023-02-01T18:34:27;97673.78;;;1.86;100.00
35226;BME280;21813;49.686;21.766;2023-02-01T18:36:54;97662.69;;;1.85;100.00
35226;BME280;21813;49.686;21.766;2023-02-01T18:39:20;97671.47;;;1.81;100.00
35226;BME280;21813;49.686;21.766;2023-02-01T18:41:47;97666.34;;;1.81;100.00
35226;BME280;21813;49.686;21.766;2023-02-01T18:44:14;97666.53;;;1.78;100.00
35226;BME280;21813;49.686;21.766;2023-02-01T18:46:41;97662.22;;;1.78;100.00
35226;BME280;21813;49.686;21.766;2023-02-01T18:49:07;97644.31;;;1.77;100.00
35226;BME280;21813;49.686;21.766;2023-02-01T18:51:35;97666.53;;;1.78;100.00
35226;BME280;21813;49.686;21.766;2023-02-01T18:54:09;97654.94;;;1.71;100.00
35226;BME280;21813;49.686;21.766;2023-02-01T18:56:35;97654.75;;;1.74;100.00
35226;BME280;21813;49.686;21.766;2023-02-01T18:59:05;97661.72;;;1.72;100.00
35226;BME280;21813;49.686;21.766;2023-02-01T19:01:34;97663.38;;;1.73;100.00
35226;BME280;21813;49.686;21.766;2023-02-01T19:04:00;97654.19;;;1.69;100.00
35226;BME280;21813;49.686;21.766;2023-02-01T19:06:26;97654.75;;;1.74;100.00
35226;BME280;21813;49.686;21.766;2023-02-01T19:08:52;97652.19;;;1.74;100.00
35226;BME280;21813;49.686;21.766;2023-02-01T19:11:20;97648.78;;;1.73;100.00
35226;BME280;21813;49.686;21.766;2023-02-01T19:13:49;97652.28;;;1.72;100.00
35226;BME280;21813;49.686;21.766;2023-02-01T19:16:15;97652.38;;;1.71;100.00
35226;BME280;21813;49.686;21.766;2023-02-01T19:18:41;97644.66;;;1.71;100.00
35226;BME280;21813;49.686;21.766;2023-02-01T19:21:09;97649.81;;;1.71;100.00
35226;BME280;21813;49.686;21.766;2023-02-01T19:23:39;97643.72;;;1.72;100.00
35226;BME280;21813;49.686;21.766;2023-02-01T19:26:14;97637.88;;;1.70;100.00
35226;BME280;21813;49.686;21.766;2023-02-01T19:28:40;97641.16;;;1.72;100.00
35226;BME280;21813;49.686;21.766;2023-02-01T19:31:07;97633.47;;;1.72;100.00
35226;BME280;21813;49.686;21.766;2023-02-01T19:33:33;97630.16;;;1.70;100.00
35226;BME280;21813;49.686;21.766;2023-02-01T19:36:01;97638.78;;;1.69;100.00
35226;BME280;21813;49.686;21.766;2023-02-01T19:38:29;97631.06;;;1.69;100.00
35226;BME280;21813;49.686;21.766;2023-02-01T19:40:55;97627.59;;;1.70;100.00
35226;BME280;21813;49.686;21.766;2023-02-01T19:43:22;97633.56;;;1.70;100.00
35226;BME280;21813;49.686;21.766;2023-02-01T19:45:48;97625.94;;;1.69;100.00
35226;BME280;21813;49.686;21.766;2023-02-01T19:48:13;97635.31;;;1.70;100.00
35226;BME280;21813;49.686;21.766;2023-02-01T19:50:40;97619.91;;;1.70;100.00
35226;BME280;21813;49.686;21.766;2023-02-01T19:53:06;97614.00;;;1.68;100.00
35226;BME280;21813;49.686;21.766;2023-02-01T19:55:32;97625.84;;;1.70;100.00
35226;BME280;21813;49.686;21.766;2023-02-01T19:57:58;97622.47;;;1.70;100.00
35226;BME280;21813;49.686;21.766;2023-02-01T20:00:25;97627.59;;;1.70;100.00
35226;BME280;21813;49.686;21.766;2023-02-01T20:02:50;97631.72;;;1.72;100.00
35226;BME280;21813;49.686;21.766;2023-02-01T20:05:17;97619.78;;;1.71;100.00
35226;BME280;21813;49.686;21.766;2023-02-01T20:07:44;97624.84;;;1.73;100.00
35226;BME280;21813;49.686;21.766;2023-02-01T20:10:10;97619.91;;;1.70;100.00
35226;BME280;21813;49.686;21.766;2023-02-01T20:12:36;97620.81;;;1.69;100.00
35226;BME280;21813;49.686;21.766;2023-02-01T20:15:03;97613.16;;;1.67;100.00
35226;BME280;21813;49.686;21.766;2023-02-01T20:17:29;97611.44;;;1.68;100.00
35226;BME280;21813;49.686;21.766;2023-02-01T20:19:55;97602.91;;;1.67;100.00
35226;BME280;21813;49.686;21.766;2023-02-01T20:22:20;97610.72;;;1.66;100.00
35226;BME280;21813;49.686;21.766;2023-02-01T20:24:46;97609.13;;;1.63;100.00
35226;BME280;21813;49.686;21.766;2023-02-01T20:27:12;97604.25;;;1.59;100.00
35226;BME280;21813;49.686;21.766;2023-02-01T20:29:39;97605.06;;;1.59;100.00
35226;BME280;21813;49.686;21.766;2023-02-01T20:32:06;97605.91;;;1.60;100.00
35226;BME280;21813;49.686;21.766;2023-02-01T20:34:32;97606.88;;;1.57;100.00
35226;BME280;21813;49.686;21.766;2023-02-01T20:36:57;97603.41;;;1.58;100.00
35226;BME280;21813;49.686;21.766;2023-02-01T20:39:23;97611.03;;;1.60;100.00
35226;BME280;21813;49.686;21.766;2023-02-01T20:41:49;97605.16;;;1.58;100.00
35226;BME280;21813;49.686;21.766;2023-02-01T20:44:15;97606.88;;;1.57;100.00
35226;BME280;21813;49.686;21.766;2023-02-01T20:46:40;97599.28;;;1.56;100.00
35226;BME280;21813;49.686;21.766;2023-02-01T20:49:06;97600.94;;;1.57;100.00
35226;BME280;21813;49.686;21.766;2023-02-01T20:51:32;97594.31;;;1.53;100.00
35226;BME280;21813;49.686;21.766;2023-02-01T20:53:58;97609.56;;;1.56;100.00
35226;BME280;21813;49.686;21.766;2023-02-01T20:56:24;97595.06;;;1.55;100.00
35226;BME280;21813;49.686;21.766;2023-02-01T20:58:50;97595.97;;;1.54;100.00
35226;BME280;21813;49.686;21.766;2023-02-01T21:01:16;97593.66;;;1.49;100.00
35226;BME280;21813;49.686;21.766;2023-02-01T21:03:42;97597.81;;;1.52;100.00
35226;BME280;21813;49.686;21.766;2023-02-01T21:06:10;97589.34;;;1.50;100.00
35226;BME280;21813;49.686;21.766;2023-02-01T21:08:38;97591.00;;;1.51;100.00
35226;BME280;21813;49.686;21.766;2023-02-01T21:11:11;97596.97;;;1.51;100.00
35226;BME280;21813;49.686;21.766;2023-02-01T22:00:26;97606.09;;;1.57;100.00
35226;BME280;21813;49.686;21.766;2023-02-01T22:03:19;97603.59;;;1.55;100.00
35226;BME280;21813;49.686;21.766;2023-02-01T22:05:57;97602.94;;;1.52;100.00
35226;BME280;21813;49.686;21.766;2023-02-01T22:08:24;97591.75;;;1.53;100.00
35226;BME280;21813;49.686;21.766;2023-02-01T22:11:21;97598.28;;;1.58;100.00
35226;BME280;21813;49.686;21.766;2023-02-01T22:14:04;97594.16;;;1.56;100.00
35226;BME280;21813;49.686;21.766;2023-02-01T22:16:57;97590.13;;;1.52;100.00
35226;BME280;21813;49.686;21.766;2023-02-01T22:19:51;97587.53;;;1.52;100.00
35226;BME280;21813;49.686;21.766;2023-02-01T22:28:01;97562.03;;;1.49;100.00
35226;BME280;21813;49.686;21.766;2023-02-01T22:30:59;97555.06;;;1.51;100.00
35226;BME280;21813;49.686;21.766;2023-02-01T22:33:30;97555.78;;;1.53;100.00
35226;BME280;21813;49.686;21.766;2023-02-01T22:35:56;97565.16;;;1.54;100.00
35226;BME280;21813;49.686;21.766;2023-02-01T22:38:23;97550.13;;;1.48;100.00
35226;BME280;21813;49.686;21.766;2023-02-01T22:44:25;97538.19;;;1.47;100.00
35226;BME280;21813;49.686;21.766;2023-02-01T22:46:53;97549.03;;;1.52;100.00
35226;BME280;21813;49.686;21.766;2023-02-01T22:49:18;97540.00;;;1.45;100.00
35226;BME280;21813;49.686;21.766;2023-02-01T22:51:47;97543.13;;;1.50;100.00
35226;BME280;21813;49.686;21.766;2023-02-01T22:54:17;97542.31;;;1.49;100.00
35226;BME280;21813;49.686;21.766;2023-02-01T22:56:47;97540.56;;;1.50;100.00
35226;BME280;21813;49.686;21.766;2023-02-01T22:59:14;97539.84;;;1.48;100.00
35226;BME280;21813;49.686;21.766;2023-02-01T23:01:41;97531.38;;;1.46;100.00
35226;BME280;21813;49.686;21.766;2023-02-01T23:04:10;97530.75;;;1.42;100.00
35226;BME280;21813;49.686;21.766;2023-02-01T23:06:38;97526.78;;;1.37;100.00
35226;BME280;21813;49.686;21.766;2023-02-01T23:09:13;97513.38;;;1.31;100.00
35226;BME280;21813;49.686;21.766;2023-02-01T23:11:41;97513.63;;;1.27;100.00
35226;BME280;21813;49.686;21.766;2023-02-01T23:14:08;97506.28;;;1.21;100.00
35226;BME280;21813;49.686;21.766;2023-02-01T23:16:34;97501.75;;;1.10;100.00
35226;BME280;21813;49.686;21.766;2023-02-01T23:19:00;97509.53;;;1.09;100.00
35226;BME280;21813;49.686;21.766;2023-02-01T23:21:26;97512.28;;;1.06;100.00
35226;BME280;21813;49.686;21.766;2023-02-01T23:23:55;97499.72;;;1.01;100.00
35226;BME280;21813;49.686;21.766;2023-02-01T23:26:23;97504.84;;;1.01;100.00
35226;BME280;21813;49.686;21.766;2023-02-01T23:28:50;97513.50;;;0.99;100.00
35226;BME280;21813;49.686;21.766;2023-02-01T23:31:24;97508.63;;;0.94;100.00
35226;BME280;21813;49.686;21.766;2023-02-01T23:37:15;97481.69;;;0.87;100.00
35226;BME280;21813;49.686;21.766;2023-02-01T23:40:25;97486.81;;;0.87;100.00
35226;BME280;21813;49.686;21.766;2023-02-01T23:43:00;97470.75;;;0.83;100.00
35226;BME280;21813;49.686;21.766;2023-02-01T23:45:50;97483.41;;;0.86;100.00
35226;BME280;21813;49.686;21.766;2023-02-01T23:48:49;97474.06;;;0.85;100.00
35226;BME280;21813;49.686;21.766;2023-02-01T23:52:27;97467.94;;;0.88;100.00
35226;BME280;21813;49.686;21.766;2023-02-01T23:55:30;97465.22;;;0.91;100.00